sensor_id;sensor_type;location;lat;lon;timestamp;P1;durP1;ratioP1;P2;durP2;ratioP2
50585;SDS011;36542;51.700;8.846;2023-02-01T00:00:03;27.90;;;7.17;;
50585;SDS011;36542;51.700;8.846;2023-02-01T00:02:29;25.00;;;8.07;;
50585;SDS011;36542;51.700;8.846;2023-02-01T00:04:55;27.50;;;8.23;;
50585;SDS011;36542;51.700;8.846;2023-02-01T00:07:20;35.57;;;8.40;;
50585;SDS011;36542;51.700;8.846;2023-02-01T00:09:46;26.77;;;8.13;;
50585;SDS011;36542;51.700;8.846;2023-02-01T00:12:11;32.07;;;7.67;;
50585;SDS011;36542;51.700;8.846;2023-02-01T00:14:37;23.87;;;7.30;;
50585;SDS011;36542;51.700;8.846;2023-02-01T00:17:05;17.03;;;7.13;;
50585;SDS011;36542;51.700;8.846;2023-02-01T00:19:31;23.60;;;7.53;;
50585;SDS011;36542;51.700;8.846;2023-02-01T00:21:57;24.50;;;6.73;;
50585;SDS011;36542;51.700;8.846;2023-02-01T00:24:23;22.77;;;7.63;;
50585;SDS011;36542;51.700;8.846;2023-02-01T00:26:48;20.37;;;7.57;;
50585;SDS011;36542;51.700;8.846;2023-02-01T00:29:15;26.67;;;8.27;;
50585;SDS011;36542;51.700;8.846;2023-02-01T00:31:42;19.20;;;7.53;;
50585;SDS011;36542;51.700;8.846;2023-02-01T00:34:11;15.90;;;6.77;;
50585;SDS011;36542;51.700;8.846;2023-02-01T00:36:39;26.93;;;6.83;;
50585;SDS011;36542;51.700;8.846;2023-02-01T00:39:05;17.73;;;6.77;;
50585;SDS011;36542;51.700;8.846;2023-02-01T00:41:31;22.17;;;7.50;;
50585;SDS011;36542;51.700;8.846;2023-02-01T00:43:56;28.77;;;7.97;;
50585;SDS011;36542;51.700;8.846;2023-02-01T00:46:22;22.77;;;7.53;;
50585;SDS011;36542;51.700;8.846;2023-02-01T00:48:48;20.53;;;7.10;;
50585;SDS011;36542;51.700;8.846;2023-02-01T00:51:15;23.23;;;8.17;;
50585;SDS011;36542;51.700;8.846;2023-02-01T00:53:43;20.37;;;6.90;;
50585;SDS011;36542;51.700;8.846;2023-02-01T00:56:09;20.37;;;7.07;;
50585;SDS011;36542;51.700;8.846;2023-02-01T00:58:34;19.53;;;7.83;;
50585;SDS011;36542;51.700;8.846;2023-02-01T01:01:05;24.87;;;8.33;;
50585;SDS011;36542;51.700;8.846;2023-02-01T01:03:33;23.97;;;7.67;;
50585;SDS011;36542;51.700;8.846;2023-02-01T01:06:02;20.73;;;8.07;;
50585;SDS011;36542;51.700;8.846;2023-02-01T01:08:30;22.97;;;7.63;;
50585;SDS011;36542;51.700;8.846;2023-02-01T01:10:55;29.97;;;7.37;;
50585;SDS011;36542;51.700;8.846;2023-02-01T01:13:21;24.67;;;7.10;;
50585;SDS011;36542;51.700;8.846;2023-02-01T01:15:46;22.17;;;7.80;;
50585;SDS011;36542;51.700;8.846;2023-02-01T01:18:12;20.97;;;7.37;;
50585;SDS011;36542;51.700;8.846;2023-02-01T01:20:39;25.13;;;7.87;;
50585;SDS011;36542;51.700;8.846;2023-02-01T01:23:05;29.53;;;8.80;;
50585;SDS011;36542;51.700;8.846;2023-02-01T01:25:32;25.63;;;8.37;;
50585;SDS011;36542;51.700;8.846;2023-02-01T01:28:01;28.07;;;9.07;;
50585;SDS011;36542;51.700;8.846;2023-02-01T01:30:27;25.33;;;8.80;;
50585;SDS011;36542;51.700;8.846;2023-02-01T01:32:52;30.63;;;9.20;;
50585;SDS011;36542;51.700;8.846;2023-02-01T01:35:18;35.40;;;9.40;;
50585;SDS011;36542;51.700;8.846;2023-02-01T01:37:43;34.27;;;10.23;;
50585;SDS011;36542;51.700;8.846;2023-02-01T01:40:09;34.67;;;10.27;;
50585;SDS011;36542;51.700;8.846;2023-02-01T01:42:38;28.70;;;10.60;;
50585;SDS011;36542;51.700;8.846;2023-02-01T01:45:20;40.03;;;11.63;;
50585;SDS011;36542;51.700;8.846;2023-02-01T01:47:55;33.17;;;11.83;;
50585;SDS011;36542;51.700;8.846;2023-02-01T01:53:17;34.43;;;12.17;;
50585;SDS011;36542;51.700;8.846;2023-02-01T01:55:46;32.47;;;12.00;;
50585;SDS011;36542;51.700;8.846;2023-02-01T01:58:17;30.27;;;11.87;;
50585;SDS011;36542;51.700;8.846;2023-02-01T02:00:46;33.67;;;11.37;;
50585;SDS011;36542;51.700;8.846;2023-02-01T02:05:44;33.47;;;11.47;;
50585;SDS011;36542;51.700;8.846;2023-02-01T02:08:11;33.67;;;12.53;;
50585;SDS011;36542;51.700;8.846;2023-02-01T02:10:37;28.23;;;11.20;;
50585;SDS011;36542;51.700;8.846;2023-02-01T02:13:21;32.80;;;11.93;;
50585;SDS011;36542;51.700;8.846;2023-02-01T02:15:55;27.40;;;11.83;;
50585;SDS011;36542;51.700;8.846;2023-02-01T02:18:34;27.77;;;11.40;;
50585;SDS011;36542;51.700;8.846;2023-02-01T02:26:44;25.57;;;10.83;;
50585;SDS011;36542;51.700;8.846;2023-02-01T02:35:25;30.00;;;10.50;;
50585;SDS011;36542;51.700;8.846;2023-02-01T02:38:02;28.77;;;9.30;;
50585;SDS011;36542;51.700;8.846;2023-02-01T02:40:59;25.07;;;8.33;;
50585;SDS011;36542;51.700;8.846;2023-02-01T02:43:58;24.77;;;7.77;;
50585;SDS011;36542;51.700;8.846;2023-02-01T02:46:46;26.33;;;8.83;;
50585;SDS011;36542;51.700;8.846;2023-02-01T02:49:34;24.03;;;7.90;;
50585;SDS011;36542;51.700;8.846;2023-02-01T02:52:46;19.33;;;7.97;;
50585;SDS011;36542;51.700;8.846;2023-02-01T02:55:54;17.40;;;6.30;;
50585;SDS011;36542;51.700;8.846;2023-02-01T02:58:39;19.33;;;7.33;;
50585;SDS011;36542;51.700;8.846;2023-02-01T03:01:25;24.60;;;6.93;;
50585;SDS011;36542;51.700;8.846;2023-02-01T03:04:09;21.67;;;6.50;;
50585;SDS011;36542;51.700;8.846;2023-02-01T03:06:42;17.40;;;5.33;;
50585;SDS011;36542;51.700;8.846;2023-02-01T03:09:08;20.13;;;5.33;;
50585;SDS011;36542;51.700;8.846;2023-02-01T03:11:38;22.07;;;6.40;;
50585;SDS011;36542;51.700;8.846;2023-02-01T03:14:26;18.37;;;5.20;;
50585;SDS011;36542;51.700;8.846;2023-02-01T03:16:55;21.27;;;5.63;;
50585;SDS011;36542;51.700;8.846;2023-02-01T03:19:28;21.77;;;4.93;;
50585;SDS011;36542;51.700;8.846;2023-02-01T03:22:08;20.43;;;4.80;;
50585;SDS011;36542;51.700;8.846;2023-02-01T03:24:40;20.23;;;5.50;;
50585;SDS011;36542;51.700;8.846;2023-02-01T03:27:10;22.57;;;6.13;;
50585;SDS011;36542;51.700;8.846;2023-02-01T03:29:49;18.87;;;5.40;;
50585;SDS011;36542;51.700;8.846;2023-02-01T03:32:31;18.40;;;5.40;;
50585;SDS011;36542;51.700;8.846;2023-02-01T03:35:18;19.00;;;5.07;;
50585;SDS011;36542;51.700;8.846;2023-02-01T03:37:50;17.97;;;5.10;;
50585;SDS011;36542;51.700;8.846;2023-02-01T03:40:19;14.27;;;4.20;;
50585;SDS011;36542;51.700;8.846;2023-02-01T03:42:46;14.23;;;5.13;;
50585;SDS011;36542;51.700;8.846;2023-02-01T03:45:22;24.07;;;5.70;;
50585;SDS011;36542;51.700;8.846;2023-02-01T03:48:07;17.47;;;5.40;;
50585;SDS011;36542;51.700;8.846;2023-02-01T03:50:36;16.20;;;4.40;;
50585;SDS011;36542;51.700;8.846;2023-02-01T03:53:08;21.63;;;5.73;;
50585;SDS011;36542;51.700;8.846;2023-02-01T03:55:39;21.43;;;5.40;;
50585;SDS011;36542;51.700;8.846;2023-02-01T03:58:06;16.97;;;4.90;;
50585;SDS011;36542;51.700;8.846;2023-02-01T04:00:44;20.27;;;5.00;;
50585;SDS011;36542;51.700;8.846;2023-02-01T04:03:20;21.20;;;5.13;;
50585;SDS011;36542;51.700;8.846;2023-02-01T04:05:49;13.93;;;4.77;;
50585;SDS011;36542;51.700;8.846;2023-02-01T04:08:15;14.67;;;4.93;;
50585;SDS011;36542;51.700;8.846;2023-02-01T04:10:42;19.83;;;5.63;;
50585;SDS011;36542;51.700;8.846;2023-02-01T04:13:07;16.77;;;5.27;;
50585;SDS011;36542;51.700;8.846;2023-02-01T04:15:33;21.80;;;5.93;;
50585;SDS011;36542;51.700;8.846;2023-02-01T04:17:59;21.57;;;5.63;;
50585;SDS011;36542;51.700;8.846;2023-02-01T04:20:25;24.93;;;5.53;;
50585;SDS011;36542;51.700;8.846;2023-02-01T04:22:50;22.43;;;5.40;;
50585;SDS011;36542;51.700;8.846;2023-02-01T04:25:16;25.20;;;5.77;;
50585;SDS011;36542;51.700;8.846;2023-02-01T04:27:42;14.13;;;5.30;;
50585;SDS011;36542;51.700;8.846;2023-02-01T04:30:08;23.73;;;6.17;;
50585;SDS011;36542;51.700;8.846;2023-02-01T04:32:37;18.67;;;4.93;;
50585;SDS011;36542;51.700;8.846;2023-02-01T04:35:03;20.63;;;5.40;;
50585;SDS011;36542;51.700;8.846;2023-02-01T04:37:29;20.83;;;5.53;;
50585;SDS011;36542;51.700;8.846;2023-02-01T04:39:54;19.77;;;5.53;;
50585;SDS011;36542;51.700;8.846;2023-02-01T04:42:20;23.73;;;5.50;;
50585;SDS011;36542;51.700;8.846;2023-02-01T04:44:45;15.37;;;5.17;;
50585;SDS011;36542;51.700;8.846;2023-02-01T04:47:11;27.20;;;6.00;;
50585;SDS011;36542;51.700;8.846;2023-02-01T04:49:37;23.33;;;5.80;;
50585;SDS011;36542;51.700;8.846;2023-02-01T04:52:02;16.83;;;5.17;;
50585;SDS011;36542;51.700;8.846;2023-02-01T04:54:28;18.93;;;4.97;;
50585;SDS011;36542;51.700;8.846;2023-02-01T04:56:53;20.10;;;5.73;;
50585;SDS011;36542;51.700;8.846;2023-02-01T04:59:19;21.23;;;6.23;;
50585;SDS011;36542;51.700;8.846;2023-02-01T05:01:44;21.27;;;5.80;;
50585;SDS011;36542;51.700;8.846;2023-02-01T05:04:09;21.83;;;4.93;;
50585;SDS011;36542;51.700;8.846;2023-02-01T05:06:35;23.37;;;5.47;;
50585;SDS011;36542;51.700;8.846;2023-02-01T05:09:01;14.83;;;4.77;;
50585;SDS011;36542;51.700;8.846;2023-02-01T05:11:26;21.67;;;5.23;;
50585;SDS011;36542;51.700;8.846;2023-02-01T05:14:10;29.97;;;5.27;;
50585;SDS011;36542;51.700;8.846;2023-02-01T05:16:36;17.23;;;5.13;;
50585;SDS011;36542;51.700;8.846;2023-02-01T05:19:01;20.03;;;5.00;;
50585;SDS011;36542;51.700;8.846;2023-02-01T05:21:27;23.33;;;4.57;;
50585;SDS011;36542;51.700;8.846;2023-02-01T05:23:52;18.33;;;4.70;;
50585;SDS011;36542;51.700;8.846;2023-02-01T05:26:41;10.30;;;5.17;;
50585;SDS011;36542;51.700;8.846;2023-02-01T05:29:08;22.67;;;5.03;;
50585;SDS011;36542;51.700;8.846;2023-02-01T05:31:35;21.90;;;5.50;;
50585;SDS011;36542;51.700;8.846;2023-02-01T05:34:01;20.13;;;5.73;;
50585;SDS011;36542;51.700;8.846;2023-02-01T05:36:27;14.43;;;3.90;;
50585;SDS011;36542;51.700;8.846;2023-02-01T05:38:52;23.37;;;4.53;;
50585;SDS011;36542;51.700;8.846;2023-02-01T05:41:18;16.73;;;4.93;;
50585;SDS011;36542;51.700;8.846;2023-02-01T05:43:43;34.30;;;5.67;;
50585;SDS011;36542;51.700;8.846;2023-02-01T05:46:09;21.63;;;5.33;;
50585;SDS011;36542;51.700;8.846;2023-02-01T05:48:41;17.33;;;5.43;;
50585;SDS011;36542;51.700;8.846;2023-02-01T05:51:07;16.10;;;5.37;;
50585;SDS011;36542;51.700;8.846;2023-02-01T05:53:34;17.90;;;5.47;;
50585;SDS011;36542;51.700;8.846;2023-02-01T05:55:59;22.93;;;5.93;;
50585;SDS011;36542;51.700;8.846;2023-02-01T05:58:25;21.60;;;5.30;;
50585;SDS011;36542;51.700;8.846;2023-02-01T06:00:51;16.67;;;4.97;;
50585;SDS011;36542;51.700;8.846;2023-02-01T06:03:16;23.17;;;5.70;;
50585;SDS011;36542;51.700;8.846;2023-02-01T06:05:45;21.23;;;5.20;;
50585;SDS011;36542;51.700;8.846;2023-02-01T06:08:12;22.47;;;5.60;;
50585;SDS011;36542;51.700;8.846;2023-02-01T06:10:38;25.33;;;7.23;;
50585;SDS011;36542;51.700;8.846;2023-02-01T06:13:04;23.50;;;5.40;;
50585;SDS011;36542;51.700;8.846;2023-02-01T06:15:29;18.20;;;5.67;;
50585;SDS011;36542;51.700;8.846;2023-02-01T06:17:56;21.93;;;5.50;;
50585;SDS011;36542;51.700;8.846;2023-02-01T06:20:21;22.93;;;5.90;;
50585;SDS011;36542;51.700;8.846;2023-02-01T06:22:47;14.43;;;4.70;;
50585;SDS011;36542;51.700;8.846;2023-02-01T06:25:12;19.80;;;5.10;;
50585;SDS011;36542;51.700;8.846;2023-02-01T06:27:38;14.90;;;4.50;;
50585;SDS011;36542;51.700;8.846;2023-02-01T06:30:04;22.67;;;4.83;;
50585;SDS011;36542;51.700;8.846;2023-02-01T06:32:31;21.87;;;4.57;;
50585;SDS011;36542;51.700;8.846;2023-02-01T06:34:57;18.37;;;4.70;;
50585;SDS011;36542;51.700;8.846;2023-02-01T06:37:23;19.63;;;4.87;;
50585;SDS011;36542;51.700;8.846;2023-02-01T06:39:50;25.67;;;5.40;;
50585;SDS011;36542;51.700;8.846;2023-02-01T06:42:16;20.93;;;4.93;;
50585;SDS011;36542;51.700;8.846;2023-02-01T06:44:41;18.20;;;4.87;;
50585;SDS011;36542;51.700;8.846;2023-02-01T06:47:06;17.20;;;5.40;;
50585;SDS011;36542;51.700;8.846;2023-02-01T06:49:32;18.37;;;4.53;;
50585;SDS011;36542;51.700;8.846;2023-02-01T06:51:58;18.40;;;5.23;;
50585;SDS011;36542;51.700;8.846;2023-02-01T06:54:25;24.67;;;4.90;;
50585;SDS011;36542;51.700;8.846;2023-02-01T06:56:54;17.57;;;4.53;;
50585;SDS011;36542;51.700;8.846;2023-02-01T06:59:19;16.00;;;4.90;;
50585;SDS011;36542;51.700;8.846;2023-02-01T07:01:45;26.97;;;4.80;;
50585;SDS011;36542;51.700;8.846;2023-02-01T07:04:11;16.23;;;4.20;;
50585;SDS011;36542;51.700;8.846;2023-02-01T07:06:37;24.27;;;5.50;;
50585;SDS011;36542;51.700;8.846;2023-02-01T07:09:03;19.17;;;4.37;;
50585;SDS011;36542;51.700;8.846;2023-02-01T07:11:29;19.60;;;5.30;;
50585;SDS011;36542;51.700;8.846;2023-02-01T07:13:55;22.77;;;4.77;;
50585;SDS011;36542;51.700;8.846;2023-02-01T07:16:21;22.53;;;5.77;;
50585;SDS011;36542;51.700;8.846;2023-02-01T07:18:46;15.77;;;4.70;;
50585;SDS011;36542;51.700;8.846;2023-02-01T07:21:12;20.07;;;5.13;;
50585;SDS011;36542;51.700;8.846;2023-02-01T07:23:38;14.70;;;4.57;;
50585;SDS011;36542;51.700;8.846;2023-02-01T07:26:05;23.33;;;5.37;;
50585;SDS011;36542;51.700;8.846;2023-02-01T07:28:32;22.37;;;4.77;;
50585;SDS011;36542;51.700;8.846;2023-02-01T07:31:07;18.13;;;5.43;;
50585;SDS011;36542;51.700;8.846;2023-02-01T07:33:33;17.53;;;5.27;;
50585;SDS011;36542;51.700;8.846;2023-02-01T07:36:00;20.67;;;5.23;;
50585;SDS011;36542;51.700;8.846;2023-02-01T07:38:27;17.33;;;4.57;;
50585;SDS011;36542;51.700;8.846;2023-02-01T07:41:00;19.10;;;5.07;;
50585;SDS011;36542;51.700;8.846;2023-02-01T07:43:27;17.43;;;4.77;;
50585;SDS011;36542;51.700;8.846;2023-02-01T07:45:53;19.80;;;5.03;;
50585;SDS011;36542;51.700;8.846;2023-02-01T07:48:20;15.43;;;4.73;;
50585;SDS011;36542;51.700;8.846;2023-02-01T07:50:46;13.13;;;5.53;;
50585;SDS011;36542;51.700;8.846;2023-02-01T07:53:12;18.23;;;5.17;;
50585;SDS011;36542;51.700;8.846;2023-02-01T07:55:38;14.50;;;4.60;;
50585;SDS011;36542;51.700;8.846;2023-02-01T07:58:04;18.93;;;4.70;;
50585;SDS011;36542;51.700;8.846;2023-02-01T08:00:29;21.73;;;4.90;;
50585;SDS011;36542;51.700;8.846;2023-02-01T08:03:13;15.63;;;4.57;;
50585;SDS011;36542;51.700;8.846;2023-02-01T08:05:39;17.60;;;4.90;;
50585;SDS011;36542;51.700;8.846;2023-02-01T08:08:04;22.40;;;5.47;;
50585;SDS011;36542;51.700;8.846;2023-02-01T08:10:31;22.03;;;4.90;;
50585;SDS011;36542;51.700;8.846;2023-02-01T08:12:59;16.97;;;4.60;;
50585;SDS011;36542;51.700;8.846;2023-02-01T08:15:26;14.73;;;4.07;;
50585;SDS011;36542;51.700;8.846;2023-02-01T08:17:52;20.60;;;5.70;;
50585;SDS011;36542;51.700;8.846;2023-02-01T08:20:19;18.37;;;4.90;;
50585;SDS011;36542;51.700;8.846;2023-02-01T08:22:47;14.37;;;5.47;;
50585;SDS011;36542;51.700;8.846;2023-02-01T08:25:13;19.80;;;5.50;;
50585;SDS011;36542;51.700;8.846;2023-02-01T08:27:39;18.47;;;5.93;;
50585;SDS011;36542;51.700;8.846;2023-02-01T08:30:05;20.50;;;5.40;;
50585;SDS011;36542;51.700;8.846;2023-02-01T08:32:32;20.27;;;5.83;;
50585;SDS011;36542;51.700;8.846;2023-02-01T08:34:58;21.93;;;5.87;;
50585;SDS011;36542;51.700;8.846;2023-02-01T08:37:24;25.73;;;5.63;;
50585;SDS011;36542;51.700;8.846;2023-02-01T08:39:49;17.90;;;5.03;;
50585;SDS011;36542;51.700;8.846;2023-02-01T08:42:15;23.60;;;5.97;;
50585;SDS011;36542;51.700;8.846;2023-02-01T08:45:01;25.67;;;6.47;;
50585;SDS011;36542;51.700;8.846;2023-02-01T08:47:28;24.20;;;6.67;;
50585;SDS011;36542;51.700;8.846;2023-02-01T08:49:53;17.63;;;5.83;;
50585;SDS011;36542;51.700;8.846;2023-02-01T08:52:19;20.60;;;6.67;;
50585;SDS011;36542;51.700;8.846;2023-02-01T08:54:44;15.73;;;5.63;;
50585;SDS011;36542;51.700;8.846;2023-02-01T08:57:10;21.00;;;6.20;;
50585;SDS011;36542;51.700;8.846;2023-02-01T08:59:35;20.80;;;6.37;;
50585;SDS011;36542;51.700;8.846;2023-02-01T09:02:01;26.20;;;6.10;;
50585;SDS011;36542;51.700;8.846;2023-02-01T09:04:26;18.00;;;6.17;;
50585;SDS011;36542;51.700;8.846;2023-02-01T09:06:53;18.93;;;5.93;;
50585;SDS011;36542;51.700;8.846;2023-02-01T09:09:20;21.40;;;6.07;;
50585;SDS011;36542;51.700;8.846;2023-02-01T09:11:49;25.33;;;7.17;;
50585;SDS011;36542;51.700;8.846;2023-02-01T09:14:17;21.70;;;7.13;;
50585;SDS011;36542;51.700;8.846;2023-02-01T09:16:43;22.77;;;6.60;;
50585;SDS011;36542;51.700;8.846;2023-02-01T09:19:09;23.77;;;6.80;;
50585;SDS011;36542;51.700;8.846;2023-02-01T09:21:34;18.00;;;6.03;;
50585;SDS011;36542;51.700;8.846;2023-02-01T09:24:00;19.63;;;6.77;;
50585;SDS011;36542;51.700;8.846;2023-02-01T09:26:26;19.97;;;7.07;;
50585;SDS011;36542;51.700;8.846;2023-02-01T09:28:52;18.63;;;6.33;;
50585;SDS011;36542;51.700;8.846;2023-02-01T09:31:17;21.83;;;5.73;;
50585;SDS011;36542;51.700;8.846;2023-02-01T09:33:43;19.67;;;6.43;;
50585;SDS011;36542;51.700;8.846;2023-02-01T09:36:09;18.43;;;6.53;;
50585;SDS011;36542;51.700;8.846;2023-02-01T09:38:34;15.47;;;5.83;;
50585;SDS011;36542;51.700;8.846;2023-02-01T09:41:00;25.77;;;6.53;;
50585;SDS011;36542;51.700;8.846;2023-02-01T09:43:41;21.53;;;7.03;;
50585;SDS011;36542;51.700;8.846;2023-02-01T09:46:26;15.73;;;5.63;;
50585;SDS011;36542;51.700;8.846;2023-02-01T09:48:55;18.87;;;6.27;;
50585;SDS011;36542;51.700;8.846;2023-02-01T09:51:25;20.70;;;5.60;;
50585;SDS011;36542;51.700;8.846;2023-02-01T09:54:00;17.07;;;5.87;;
50585;SDS011;36542;51.700;8.846;2023-02-01T09:56:34;17.70;;;6.73;;
50585;SDS011;36542;51.700;8.846;2023-02-01T10:02:38;22.50;;;7.27;;
50585;SDS011;36542;51.700;8.846;2023-02-01T10:05:05;18.17;;;7.20;;
50585;SDS011;36542;51.700;8.846;2023-02-01T10:07:43;23.47;;;7.57;;
50585;SDS011;36542;51.700;8.846;2023-02-01T10:10:29;20.90;;;7.00;;
50585;SDS011;36542;51.700;8.846;2023-02-01T10:13:14;16.67;;;8.60;;
50585;SDS011;36542;51.700;8.846;2023-02-01T10:19:02;23.20;;;8.50;;
50585;SDS011;36542;51.700;8.846;2023-02-01T10:26:58;21.40;;;8.63;;
50585;SDS011;36542;51.700;8.846;2023-02-01T10:29:25;16.27;;;7.87;;
50585;SDS011;36542;51.700;8.846;2023-02-01T10:31:56;22.17;;;8.70;;
50585;SDS011;36542;51.700;8.846;2023-02-01T10:34:25;22.90;;;7.60;;
50585;SDS011;36542;51.700;8.846;2023-02-01T10:36:54;18.40;;;7.83;;
50585;SDS011;36542;51.700;8.846;2023-02-01T10:39:24;17.97;;;7.23;;
50585;SDS011;36542;51.700;8.846;2023-02-01T10:41:49;24.37;;;7.77;;
50585;SDS011;36542;51.700;8.846;2023-02-01T10:44:24;23.90;;;8.63;;
50585;SDS011;36542;51.700;8.846;2023-02-01T10:46:52;25.83;;;8.37;;
50585;SDS011;36542;51.700;8.846;2023-02-01T10:49:40;24.13;;;8.80;;
50585;SDS011;36542;51.700;8.846;2023-02-01T10:52:30;22.47;;;8.60;;
50585;SDS011;36542;51.700;8.846;2023-02-01T10:58:02;25.90;;;7.90;;
50585;SDS011;36542;51.700;8.846;2023-02-01T11:00:38;21.33;;;9.03;;
50585;SDS011;36542;51.700;8.846;2023-02-01T11:06:09;21.57;;;8.77;;
50585;SDS011;36542;51.700;8.846;2023-02-01T11:08:44;21.53;;;9.03;;
50585;SDS011;36542;51.700;8.846;2023-02-01T11:11:18;21.93;;;8.70;;
50585;SDS011;36542;51.700;8.846;2023-02-01T11:13:44;22.03;;;9.07;;
50585;SDS011;36542;51.700;8.846;2023-02-01T11:16:36;20.83;;;9.23;;
50585;SDS011;36542;51.700;8.846;2023-02-01T11:19:03;23.83;;;9.17;;
50585;SDS011;36542;51.700;8.846;2023-02-01T11:21:30;20.13;;;9.70;;
50585;SDS011;36542;51.700;8.846;2023-02-01T11:24:00;20.33;;;9.40;;
50585;SDS011;36542;51.700;8.846;2023-02-01T11:26:30;20.37;;;9.37;;
50585;SDS011;36542;51.700;8.846;2023-02-01T11:29:04;20.27;;;10.33;;
50585;SDS011;36542;51.700;8.846;2023-02-01T11:31:35;24.53;;;10.03;;
50585;SDS011;36542;51.700;8.846;2023-02-01T11:34:07;15.13;;;9.03;;
50585;SDS011;36542;51.700;8.846;2023-02-01T11:36:36;24.00;;;10.00;;
50585;SDS011;36542;51.700;8.846;2023-02-01T11:41:41;21.57;;;10.33;;
50585;SDS011;36542;51.700;8.846;2023-02-01T11:44:16;26.63;;;9.80;;
50585;SDS011;36542;51.700;8.846;2023-02-01T11:46:46;21.47;;;9.80;;
50585;SDS011;36542;51.700;8.846;2023-02-01T11:49:22;25.03;;;10.60;;
50585;SDS011;36542;51.700;8.846;2023-02-01T11:52:14;22.47;;;10.23;;
50585;SDS011;36542;51.700;8.846;2023-02-01T11:54:46;21.67;;;9.43;;
50585;SDS011;36542;51.700;8.846;2023-02-01T12:03:38;23.70;;;9.60;;
50585;SDS011;36542;51.700;8.846;2023-02-01T12:11:48;18.43;;;9.73;;
50585;SDS011;36542;51.700;8.846;2023-02-01T12:20:52;23.60;;;10.80;;
50585;SDS011;36542;51.700;8.846;2023-02-01T12:26:27;22.87;;;11.23;;
50585;SDS011;36542;51.700;8.846;2023-02-01T12:32:11;18.77;;;10.50;;
50585;SDS011;36542;51.700;8.846;2023-02-01T12:35:13;19.30;;;10.00;;
50585;SDS011;36542;51.700;8.846;2023-02-01T12:38:06;25.60;;;11.03;;
50585;SDS011;36542;51.700;8.846;2023-02-01T12:43:45;24.17;;;12.33;;
50585;SDS011;36542;51.700;8.846;2023-02-01T12:46:22;26.60;;;11.07;;
50585;SDS011;36542;51.700;8.846;2023-02-01T12:48:57;26.83;;;11.90;;
50585;SDS011;36542;51.700;8.846;2023-02-01T12:51:29;27.37;;;11.47;;
50585;SDS011;36542;51.700;8.846;2023-02-01T12:54:01;25.27;;;12.97;;
50585;SDS011;36542;51.700;8.846;2023-02-01T12:56:55;25.43;;;14.37;;
50585;SDS011;36542;51.700;8.846;2023-02-01T12:59:30;30.77;;;12.73;;
50585;SDS011;36542;51.700;8.846;2023-02-01T13:02:01;24.53;;;12.03;;
50585;SDS011;36542;51.700;8.846;2023-02-01T13:08:10;23.33;;;11.17;;
50585;SDS011;36542;51.700;8.846;2023-02-01T13:10:43;24.70;;;11.77;;
50585;SDS011;36542;51.700;8.846;2023-02-01T13:13:24;22.53;;;12.20;;
50585;SDS011;36542;51.700;8.846;2023-02-01T13:16:23;24.07;;;13.77;;
50585;SDS011;36542;51.700;8.846;2023-02-01T13:18:55;23.80;;;13.27;;
50585;SDS011;36542;51.700;8.846;2023-02-01T13:21:30;32.33;;;14.93;;
50585;SDS011;36542;51.700;8.846;2023-02-01T13:23:59;32.50;;;14.17;;
50585;SDS011;36542;51.700;8.846;2023-02-01T13:26:25;30.63;;;15.17;;
50585;SDS011;36542;51.700;8.846;2023-02-01T13:28:51;29.57;;;15.93;;
50585;SDS011;36542;51.700;8.846;2023-02-01T13:34:28;31.40;;;15.90;;
50585;SDS011;36542;51.700;8.846;2023-02-01T13:43:39;27.97;;;15.40;;
50585;SDS011;36542;51.700;8.846;2023-02-01T13:45:52;29.97;;;15.80;;
50585;SDS011;36542;51.700;8.846;2023-02-01T13:48:28;25.43;;;14.30;;
50585;SDS011;36542;51.700;8.846;2023-02-01T13:51:03;35.30;;;15.83;;
50585;SDS011;36542;51.700;8.846;2023-02-01T13:53:30;30.43;;;14.70;;
50585;SDS011;36542;51.700;8.846;2023-02-01T13:56:03;28.50;;;14.43;;
50585;SDS011;36542;51.700;8.846;2023-02-01T13:58:34;28.07;;;16.20;;
50585;SDS011;36542;51.700;8.846;2023-02-01T14:03:58;37.27;;;16.00;;
50585;SDS011;36542;51.700;8.846;2023-02-01T14:09:11;30.17;;;14.80;;
50585;SDS011;36542;51.700;8.846;2023-02-01T14:11:40;28.33;;;14.47;;
50585;SDS011;36542;51.700;8.846;2023-02-01T14:16:42;30.47;;;16.00;;
50585;SDS011;36542;51.700;8.846;2023-02-01T14:19:18;28.87;;;15.10;;
50585;SDS011;36542;51.700;8.846;2023-02-01T14:24:29;28.20;;;12.73;;
50585;SDS011;36542;51.700;8.846;2023-02-01T14:26:59;33.67;;;14.03;;
50585;SDS011;36542;51.700;8.846;2023-02-01T14:29:31;21.23;;;11.80;;
50585;SDS011;36542;51.700;8.846;2023-02-01T14:32:15;25.47;;;11.43;;
50585;SDS011;36542;51.700;8.846;2023-02-01T14:37:33;25.00;;;11.83;;
50585;SDS011;36542;51.700;8.846;2023-02-01T14:40:03;23.47;;;9.80;;
50585;SDS011;36542;51.700;8.846;2023-02-01T14:47:50;23.83;;;10.83;;
50585;SDS011;36542;51.700;8.846;2023-02-01T15:01:24;17.07;;;6.37;;
50585;SDS011;36542;51.700;8.846;2023-02-01T15:12:14;21.83;;;6.63;;
50585;SDS011;36542;51.700;8.846;2023-02-01T15:17:39;21.23;;;7.90;;
50585;SDS011;36542;51.700;8.846;2023-02-01T15:20:15;15.03;;;7.47;;
50585;SDS011;36542;51.700;8.846;2023-02-01T15:22:56;17.10;;;6.23;;
50585;SDS011;36542;51.700;8.846;2023-02-01T15:25:26;25.37;;;6.87;;
50585;SDS011;36542;51.700;8.846;2023-02-01T15:27:53;21.37;;;6.90;;
50585;SDS011;36542;51.700;8.846;2023-02-01T15:30:24;12.67;;;5.30;;
50585;SDS011;36542;51.700;8.846;2023-02-01T15:33:13;6.77;;;2.70;;
50585;SDS011;36542;51.700;8.846;2023-02-01T15:35:42;9.10;;;3.67;;
50585;SDS011;36542;51.700;8.846;2023-02-01T15:38:20;7.10;;;3.20;;
50585;SDS011;36542;51.700;8.846;2023-02-01T15:41:31;6.73;;;2.83;;
50585;SDS011;36542;51.700;8.846;2023-02-01T15:46:21;8.87;;;2.20;;
50585;SDS011;36542;51.700;8.846;2023-02-01T15:48:51;7.37;;;2.40;;
50585;SDS011;36542;51.700;8.846;2023-02-01T15:51:19;9.47;;;2.97;;
50585;SDS011;36542;51.700;8.846;2023-02-01T15:53:54;8.23;;;3.30;;
50585;SDS011;36542;51.700;8.846;2023-02-01T15:56:35;11.83;;;5.07;;
50585;SDS011;36542;51.700;8.846;2023-02-01T15:59:04;13.87;;;5.20;;
50585;SDS011;36542;51.700;8.846;2023-02-01T16:01:37;18.20;;;5.83;;
50585;SDS011;36542;51.700;8.846;2023-02-01T16:06:51;15.10;;;5.87;;
50585;SDS011;36542;51.700;8.846;2023-02-01T16:09:18;9.27;;;4.93;;
50585;SDS011;36542;51.700;8.846;2023-02-01T16:11:51;13.53;;;5.60;;
50585;SDS011;36542;51.700;8.846;2023-02-01T16:14:25;19.77;;;6.60;;
50585;SDS011;36542;51.700;8.846;2023-02-01T16:16:52;22.87;;;8.07;;
50585;SDS011;36542;51.700;8.846;2023-02-01T16:19:18;22.03;;;8.43;;
50585;SDS011;36542;51.700;8.846;2023-02-01T16:21:44;23.87;;;10.63;;
50585;SDS011;36542;51.700;8.846;2023-02-01T16:24:10;25.40;;;8.50;;
50585;SDS011;36542;51.700;8.846;2023-02-01T16:26:36;22.00;;;7.50;;
50585;SDS011;36542;51.700;8.846;2023-02-01T16:29:03;12.77;;;5.13;;
50585;SDS011;36542;51.700;8.846;2023-02-01T16:31:31;6.10;;;3.53;;
50585;SDS011;36542;51.700;8.846;2023-02-01T16:34:00;12.40;;;3.97;;
50585;SDS011;36542;51.700;8.846;2023-02-01T16:36:26;17.83;;;4.57;;
50585;SDS011;36542;51.700;8.846;2023-02-01T16:38:53;15.23;;;5.40;;
50585;SDS011;36542;51.700;8.846;2023-02-01T16:41:19;11.83;;;4.50;;
50585;SDS011;36542;51.700;8.846;2023-02-01T16:43:49;15.57;;;4.37;;
50585;SDS011;36542;51.700;8.846;2023-02-01T16:46:16;14.77;;;5.90;;
50585;SDS011;36542;51.700;8.846;2023-02-01T16:48:51;18.53;;;7.17;;
50585;SDS011;36542;51.700;8.846;2023-02-01T16:51:19;16.43;;;6.13;;
50585;SDS011;36542;51.700;8.846;2023-02-01T16:53:45;13.80;;;5.40;;
50585;SDS011;36542;51.700;8.846;2023-02-01T16:56:14;13.93;;;4.87;;